Saturday, August 27, 2016, 2:38 PM EDT

KRIC, Richmond International Airport

Location: Sandston, VA, United States Lat: 37.517
Local Time: 2:38 PM EDT (18:38 GMT) Lon: -77.317
Time Zone: US/Eastern Elev: 167 ft

Show me the last for .
Show Decoded

2016-08-27 13:54 METAR KRIC 271754Z 06009KT 10SM FEW035 FEW300 34/17 A3014 RMK AO2 SLP209
                 T03390167 10339 20261 58003 =
2016-08-27 12:54 METAR KRIC 271654Z VRB06KT 10SM FEW030 FEW300 33/18 A3015 RMK AO2 SLP213
                 T03280183 =
2016-08-27 11:54 METAR KRIC 271554Z 06008KT 10SM FEW030 FEW300 32/19 A3015 RMK AO2 SLP212
                 T03220194 =
2016-08-27 10:54 METAR KRIC 271454Z 08008KT 10SM FEW075 FEW300 31/21 A3015 RMK AO2 SLP212
                 T03110206 51008 =
2016-08-27 09:54 METAR KRIC 271354Z COR 07011KT 10SM FEW070 FEW300 30/21 A3015 RMK AO2 SLP211
                 T03000211 =
2016-08-27 08:54 METAR KRIC 271254Z 06009KT 10SM FEW070 SCT300 29/22 A3014 RMK AO2 SLP207
                 T02890222 =
2016-08-27 07:54 METAR KRIC 271154Z 05006KT 10SM SCT070 BKN300 26/23 A3013 RMK AO2 SLP204 60000
                 T02610228 10261 20239 52014 =
2016-08-27 06:54 METAR KRIC 271054Z 06004KT 8SM FEW050 FEW070 SCT300 24/23 A3011 RMK AO2 SLP200
                 T02440228 =
2016-08-27 05:54 METAR KRIC 270954Z 04006KT 8SM FEW048 FEW070 24/23 A3010 RMK AO2 SLP194
                 T02440228 =
2016-08-27 04:54 METAR KRIC 270854Z 03005KT 10SM SCT050 BKN070 25/23 A3008 RMK AO2 RAB26E38
                 SLP190 P0000 60000 T02500228 53005 =
2016-08-27 03:54 METAR KRIC 270754Z 03003KT 10SM SCT060 BKN075 26/23 A3007 RMK AO2 SLP186
                 T02560233 =
2016-08-27 02:54 METAR KRIC 270654Z 04003KT 10SM FEW050 SCT070 26/23 A3007 RMK AO2 SLP186
                 T02560228 =
2016-08-27 01:54 METAR KRIC 270554Z 00000KT 10SM FEW055 26/23 A3007 RMK AO2 SLP184 T02610228
                 10311 20256 58000 =
2016-08-27 00:54 METAR KRIC 270454Z 00000KT 10SM SCT060 27/23 A3008 RMK AO2 SLP188 T02720233
                 403720222 =
2016-08-26 23:54 METAR KRIC 270354Z 00000KT 10SM FEW075 27/23 A3007 RMK AO2 SLP186 T02670233 =
2016-08-26 22:54 METAR KRIC 270254Z 07005KT 10SM FEW075 27/23 A3007 RMK AO2 SLP185 T02720233
                 51012 =
2016-08-26 21:54 METAR KRIC 270154Z 00000KT 10SM FEW065 28/23 A3006 RMK AO2 SLP182 T02830233 =
2016-08-26 20:54 METAR KRIC 270054Z 00000KT 10SM FEW070 FEW100 SCT300 30/23 A3005 RMK AO2 SLP178
                 T03000233 =
2016-08-26 19:54 METAR KRIC 262354Z 09003KT 10SM FEW050 FEW090 SCT300 31/23 A3003 RMK AO2 SLP173
                 T03110228 10372 20311 53002 =
2016-08-26 18:54 METAR KRIC 262254Z 05006KT 10SM FEW055 FEW300 33/21 A3002 RMK AO2 SLP168
                 T03330206 =
2016-08-26 17:54 METAR KRIC 262154Z 34005KT 10SM FEW055 FEW300 35/21 A3003 RMK AO2 SLP171
                 T03500211 =
2016-08-26 16:54 METAR KRIC 262054Z 01008KT 10SM SCT055 SCT300 37/21 A3003 =
2016-08-26 15:54 METAR KRIC 261954Z VRB03KT 10SM FEW050 SCT250 36/21 A3003 RMK AO2 SLP172
                 T03560211 =
2016-08-26 14:54 METAR KRIC 261854Z 03006KT 10SM SCT050 BKN250 34/21 A3005 RMK AO2 SLP178
                 T03440211 =

Support USWX by starting your Amazon purchase here.